Time;durP1;ratioP1;P1;durP2;ratioP2;P2;SDS_P1;SDS_P2;PMS_P1;PMS_P2;Temp;Humidity;BMP_temperature;BMP_pressure;BME280_temperature;BME280_humidity;BME280_pressure;Samples;Min_cycle;Max_cycle;Signal;HPM_P1;HPM_P2
2021/11/29 00:02:28;;;;;;;12.95;7.15;;;;;;;15.34;100.00;99090.28;5115632;28;20088;-71
2021/11/29 00:05:17;;;;;;;13.05;7.32;;;;;;;15.47;100.00;99093.88;5114983;28;20024;-71
2021/11/29 00:08:03;;;;;;;16.67;8.68;;;;;;;15.48;100.00;99095.56;5115030;28;20027;-71
2021/11/29 00:10:49;;;;;;;21.80;12.30;;;;;;;15.46;100.00;99085.13;5114290;28;20051;-71
2021/11/29 00:13:35;;;;;;;19.98;9.60;;;;;;;15.27;100.00;99083.69;5115753;28;20448;-70
2021/11/29 00:16:20;;;;;;;17.27;9.55;;;;;;;15.36;100.00;99078.72;5115121;28;20027;-71
2021/11/29 00:19:06;;;;;;;18.77;8.68;;;;;;;15.32;100.00;99076.34;5115072;28;20085;-71
2021/11/29 00:21:52;;;;;;;15.27;8.10;;;;;;;15.23;100.00;99069.00;5115143;28;20364;-70
2021/11/29 00:24:38;;;;;;;15.88;8.35;;;;;;;15.27;100.00;99070.50;5116073;28;20084;-71
2021/11/29 00:27:24;;;;;;;12.60;6.93;;;;;;;15.17;100.00;99067.59;5114984;28;20118;-71
2021/11/29 00:30:12;;;;;;;11.60;6.88;;;;;;;15.00;100.00;99065.16;5100817;28;20035;-71
2021/11/29 00:32:58;;;;;;;12.30;6.63;;;;;;;15.25;100.00;99062.69;5114913;28;20513;-70
2021/11/29 00:35:44;;;;;;;12.63;6.10;;;;;;;15.24;100.00;99055.72;5113919;28;20471;-70
2021/11/29 00:38:30;;;;;;;10.85;5.70;;;;;;;15.58;100.00;99044.75;5114982;28;20027;-71
2021/11/29 00:41:16;;;;;;;12.23;7.38;;;;;;;15.38;100.00;99036.41;5100901;28;20051;-71
2021/11/29 00:44:02;;;;;;;15.48;6.85;;;;;;;15.38;100.00;99037.25;5113951;28;20027;-71
2021/11/29 00:46:48;;;;;;;13.20;8.00;;;;;;;15.34;100.00;99029.59;5099966;28;20023;-70
2021/11/29 00:49:34;;;;;;;12.95;8.07;;;;;;;15.40;100.00;99031.88;5100457;28;20036;-71
2021/11/29 00:52:20;;;;;;;16.70;9.90;;;;;;;15.14;100.00;99011.56;5114219;28;20452;-71
2021/11/29 00:55:06;;;;;;;18.42;9.65;;;;;;;15.22;100.00;99020.66;5114433;28;20024;-70
2021/11/29 00:57:52;;;;;;;17.27;9.57;;;;;;;14.90;100.00;99024.44;5113579;28;20103;-70
2021/11/29 01:00:39;;;;;;;17.60;11.02;;;;;;;14.88;100.00;99032.44;5112968;28;20110;-69
2021/11/29 01:03:25;;;;;;;17.33;10.82;;;;;;;14.97;100.00;99031.06;5114664;28;20027;-71
2021/11/29 01:06:11;;;;;;;15.63;10.10;;;;;;;15.17;100.00;99021.88;5113514;28;20027;-70
2021/11/29 01:08:56;;;;;;;22.30;10.88;;;;;;;15.25;100.00;99022.25;5114066;28;20023;-71
2021/11/29 01:11:42;;;;;;;29.70;12.45;;;;;;;14.97;100.00;99020.50;5113421;28;20015;-70
2021/11/29 01:14:28;;;;;;;22.95;11.20;;;;;;;15.19;100.00;99025.28;5113576;28;20059;-70
2021/11/29 01:17:14;;;;;;;23.88;11.10;;;;;;;15.06;100.00;99006.72;5113346;28;20031;-71
2021/11/29 01:20:01;;;;;;;23.17;10.75;;;;;;;15.27;100.00;98997.47;5114257;28;20076;-71
2021/11/29 01:22:47;;;;;;;16.83;10.80;;;;;;;15.37;100.00;98997.75;5113368;28;20039;-70
2021/11/29 01:25:33;;;;;;;23.70;11.60;;;;;;;15.35;100.00;98999.66;5113596;28;20058;-70
2021/11/29 01:28:20;;;;;;;26.38;10.75;;;;;;;15.37;100.00;98993.34;5113406;28;20039;-71
2021/11/29 01:31:07;;;;;;;19.90;11.25;;;;;;;15.25;100.00;98974.75;5099564;28;20039;-70
2021/11/29 01:33:53;;;;;;;24.05;10.90;;;;;;;15.22;100.00;98978.44;5099652;28;20099;-71
2021/11/29 01:36:39;;;;;;;24.20;11.13;;;;;;;14.96;100.00;98975.75;5100372;28;20035;-70
2021/11/29 01:39:25;;;;;;;19.13;11.38;;;;;;;14.91;100.00;98977.84;5113889;28;20035;-70
2021/11/29 01:42:11;;;;;;;17.05;8.68;;;;;;;14.88;100.00;98966.53;5113600;28;20058;-71
2021/11/29 01:44:57;;;;;;;11.55;7.53;;;;;;;15.28;100.00;98956.09;5113562;28;20023;-71
2021/11/29 01:47:43;;;;;;;11.60;6.53;;;;;;;15.34;100.00;98939.91;5099396;28;20055;-71
2021/11/29 01:50:29;;;;;;;12.95;6.25;;;;;;;15.76;100.00;98929.19;5113643;28;20030;-71
2021/11/29 01:53:16;;;;;;;11.23;5.97;;;;;;;16.00;100.00;98924.91;5098761;28;20428;-70
2021/11/29 01:56:02;;;;;;;9.07;5.72;;;;;;;16.22;100.00;98919.81;5099147;28;20028;-70
2021/11/29 01:58:48;;;;;;;9.23;6.05;;;;;;;16.20;100.00;98909.34;5113107;28;20032;-70
2021/11/29 02:01:34;;;;;;;9.85;5.75;;;;;;;16.55;100.00;98905.16;5113326;28;20366;-71
2021/11/29 02:04:21;;;;;;;8.90;5.70;;;;;;;16.49;100.00;98907.38;5113419;28;20027;-71
2021/11/29 02:07:07;;;;;;;8.98;5.20;;;;;;;16.72;100.00;98896.03;5113114;28;20039;-71
2021/11/29 02:09:53;;;;;;;10.05;5.15;;;;;;;16.81;100.00;98893.59;5113195;28;20031;-71
2021/11/29 02:12:40;;;;;;;9.75;5.03;;;;;;;16.90;100.00;98884.13;5117980;28;20028;-71
2021/11/29 02:15:26;;;;;;;10.73;5.00;;;;;;;16.96;100.00;98884.53;5117381;28;20023;-71
2021/11/29 02:18:12;;;;;;;9.10;5.20;;;;;;;16.92;100.00;98896.28;5117445;28;20062;-71
2021/11/29 02:21:04;;;;;;;11.68;5.70;;;;;;;16.90;100.00;98884.13;5117507;28;20033;-71
2021/11/29 02:23:55;;;;;;;12.05;7.20;;;;;;;16.56;100.00;98887.50;5117334;28;20032;-70
2021/11/29 02:26:41;;;;;;;13.45;7.60;;;;;;;16.43;100.00;98876.09;5116377;28;20336;-71
2021/11/29 02:29:26;;;;;;;12.70;7.53;;;;;;;16.38;100.00;98872.88;5117114;28;20030;-71
2021/11/29 02:32:12;;;;;;;11.95;7.22;;;;;;;16.47;100.00;98851.97;5117146;28;20031;-70
2021/11/29 02:34:58;;;;;;;13.27;7.10;;;;;;;16.42;100.00;98834.75;5116303;28;20035;-71
2021/11/29 02:37:44;;;;;;;9.95;7.45;;;;;;;16.24;100.00;98836.03;5116843;28;20034;-70
2021/11/29 02:40:30;;;;;;;14.07;8.27;;;;;;;16.13;100.00;98833.28;5102435;28;20034;-71
2021/11/29 02:43:15;;;;;;;12.70;8.10;;;;;;;16.06;100.00;98829.38;5102521;28;20062;-71
2021/11/29 02:46:02;;;;;;;12.57;8.25;;;;;;;16.03;100.00;98829.59;5116325;28;20062;-71
2021/11/29 02:48:50;;;;;;;10.90;7.90;;;;;;;16.00;100.00;98827.16;5116619;28;20091;-70
2021/11/29 02:51:41;;;;;;;13.63;8.88;;;;;;;15.77;100.00;98833.16;5102540;28;20103;-70
2021/11/29 02:54:31;;;;;;;10.82;8.35;;;;;;;15.66;100.00;98825.13;5116750;28;20039;-71
2021/11/29 02:57:20;;;;;;;13.20;7.70;;;;;;;15.35;100.00;98813.16;5116003;28;20378;-71
2021/11/29 03:00:08;;;;;;;14.07;7.80;;;;;;;15.75;100.00;98806.88;5116580;28;20043;-71
2021/11/29 03:03:06;;;;;;;12.73;7.70;;;;;;;16.04;100.00;98807.50;5116615;28;20058;-71
2021/11/29 03:05:51;;;;;;;14.95;8.57;;;;;;;15.90;100.00;98811.09;5115591;28;20289;-71
2021/11/29 03:08:39;;;;;;;14.93;9.10;;;;;;;16.04;100.00;98807.50;5116286;28;20066;-71
2021/11/29 03:11:27;;;;;;;13.57;9.68;;;;;;;15.65;100.00;98810.25;5101857;28;20115;-70
2021/11/29 03:14:14;;;;;;;15.98;10.00;;;;;;;15.63;100.00;98810.34;5115768;28;20435;-71
2021/11/29 03:17:01;;;;;;;17.42;10.20;;;;;;;15.80;100.00;98798.66;5115658;28;20027;-71
2021/11/29 03:19:47;;;;;;;17.45;10.60;;;;;;;15.82;100.00;98800.22;5115874;28;20103;-70
2021/11/29 03:22:33;;;;;;;21.05;12.07;;;;;;;15.65;100.00;98804.97;5114863;28;20069;-71
2021/11/29 03:25:19;;;;;;;16.65;10.95;;;;;;;15.70;100.00;98819.53;5115288;28;20451;-70
2021/11/29 03:28:04;;;;;;;18.83;12.52;;;;;;;15.59;100.00;98835.25;5115611;28;20039;-72
2021/11/29 03:30:51;;;;;;;19.50;12.48;;;;;;;15.42;100.00;98840.81;5115765;28;20027;-70
2021/11/29 03:33:38;;;;;;;22.58;12.15;;;;;;;14.91;100.00;98843.38;5115824;28;20126;-71
2021/11/29 03:36:26;;;;;;;21.65;12.55;;;;;;;15.02;100.00;98854.09;5115971;28;20035;-71
2021/11/29 03:39:21;;;;;;;19.70;12.77;;;;;;;14.13;100.00;98846.56;5115318;28;20324;-71
2021/11/29 03:42:07;;;;;;;22.55;13.50;;;;;;;13.47;100.00;98846.19;5115099;28;20447;-71
2021/11/29 03:44:53;;;;;;;20.15;13.38;;;;;;;13.44;100.00;98841.13;5115944;28;20031;-71
2021/11/29 03:47:38;;;;;;;21.20;14.48;;;;;;;13.61;100.00;98835.72;5114823;28;20417;-71
2021/11/29 03:50:24;;;;;;;21.95;13.70;;;;;;;13.71;100.00;98820.22;5115201;28;20038;-72
2021/11/29 03:53:10;;;;;;;20.45;13.63;;;;;;;13.81;100.00;98823.97;5115232;28;20027;-71
2021/11/29 03:55:56;;;;;;;21.17;13.57;;;;;;;13.81;100.00;98814.31;5115360;28;20023;-71
2021/11/29 03:58:42;;;;;;;20.98;13.05;;;;;;;14.03;100.00;98796.25;5101182;28;20118;-71
2021/11/29 04:01:28;;;;;;;23.23;14.50;;;;;;;13.79;100.00;98781.13;5100408;28;20023;-69
2021/11/29 04:04:14;;;;;;;22.30;12.73;;;;;;;13.75;100.00;98783.09;5114488;28;20078;-71
2021/11/29 04:07:00;;;;;;;21.23;13.70;;;;;;;14.03;100.00;98767.28;5100948;28;20529;-70
2021/11/29 04:09:46;;;;;;;24.38;15.88;;;;;;;14.11;100.00;98769.47;5114626;28;20466;-70
2021/11/29 04:12:31;;;;;;;27.00;17.90;;;;;;;14.14;100.00;98759.56;5100962;28;20031;-71
2021/11/29 04:15:17;;;;;;;28.20;17.85;;;;;;;14.12;100.00;98750.09;5115129;28;20038;-71
2021/11/29 04:18:04;;;;;;;40.10;24.08;;;;;;;14.02;100.00;98752.44;5114870;28;20169;-71
2021/11/29 04:20:50;;;;;;;38.83;23.45;;;;;;;13.81;100.00;98750.28;5115207;28;20047;-70
2021/11/29 04:23:36;;;;;;;41.13;25.88;;;;;;;13.72;100.00;98753.50;5100378;28;20337;-70
2021/11/29 04:26:22;;;;;;;40.05;25.63;;;;;;;13.87;100.00;98753.38;5114332;28;20533;-70
2021/11/29 04:29:18;;;;;;;38.67;26.35;;;;;;;14.04;100.00;98755.84;5114229;28;20110;-71
2021/11/29 04:32:04;;;;;;;36.80;24.27;;;;;;;14.02;100.00;98755.06;5115079;28;20019;-70
2021/11/29 04:34:50;;;;;;;33.05;22.48;;;;;;;13.93;100.00;98745.13;5114285;28;20472;-71
2021/11/29 04:37:36;;;;;;;32.22;21.52;;;;;;;13.97;100.00;98736.09;5114556;28;20031;-71
2021/11/29 04:40:22;;;;;;;33.40;19.73;;;;;;;13.80;100.00;98735.44;5115012;28;20102;-70
2021/11/29 04:43:08;;;;;;;32.42;19.70;;;;;;;13.98;100.00;98735.16;5115340;28;20066;-71
2021/11/29 04:45:54;;;;;;;30.75;19.88;;;;;;;14.17;100.00;98740.97;5113845;28;20057;-70
2021/11/29 04:48:40;;;;;;;27.30;19.58;;;;;;;14.26;100.00;98742.16;5114214;28;20114;-70
2021/11/29 04:51:25;;;;;;;27.40;18.25;;;;;;;14.04;100.00;98758.47;5100687;28;20031;-71
2021/11/29 04:54:11;;;;;;;34.60;19.75;;;;;;;14.28;100.00;98754.31;5113965;28;20028;-70
2021/11/29 04:56:57;;;;;;;31.40;20.52;;;;;;;14.40;100.00;98732.44;5099787;28;20035;-71
2021/11/29 04:59:43;;;;;;;31.17;19.85;;;;;;;13.99;100.00;98739.47;5114385;28;20417;-71
2021/11/29 05:02:29;;;;;;;34.95;21.27;;;;;;;13.95;100.00;98759.03;5114184;28;20027;-71
2021/11/29 05:05:15;;;;;;;29.50;18.83;;;;;;;14.19;100.00;98756.66;5113542;28;20027;-70
2021/11/29 05:08:01;;;;;;;30.15;20.35;;;;;;;13.90;100.00;98763.72;5114087;28;20023;-71
2021/11/29 05:10:47;;;;;;;36.10;20.70;;;;;;;14.14;100.00;98751.66;5113661;28;20023;-71
2021/11/29 05:13:34;;;;;;;41.38;20.77;;;;;;;13.54;100.00;98739.66;5114132;28;20454;-71
2021/11/29 05:16:20;;;;;;;32.60;19.48;;;;;;;13.72;100.00;98756.97;5112798;28;20027;-71
2021/11/29 05:19:06;;;;;;;32.28;20.98;;;;;;;13.69;100.00;98761.56;5113826;28;20059;-70
2021/11/29 05:21:51;;;;;;;32.25;20.42;;;;;;;13.84;100.00;98756.22;5114179;28;20096;-71
2021/11/29 05:24:39;;;;;;;40.88;25.70;;;;;;;13.90;100.00;98739.19;5113885;28;20062;-70
2021/11/29 05:27:24;;;;;;;33.42;22.48;;;;;;;13.65;100.00;98750.41;5114482;28;20050;-71
2021/11/29 05:30:10;;;;;;;42.00;22.38;;;;;;;13.81;100.00;98785.38;5113293;28;20078;-71
2021/11/29 05:32:56;;;;;;;34.72;21.15;;;;;;;13.46;100.00;98791.03;5114294;28;20020;-71
2021/11/29 05:35:42;;;;;;;35.05;20.30;;;;;;;13.38;100.00;98794.13;5113086;28;20035;-71
2021/11/29 05:38:28;;;;;;;27.85;17.10;;;;;;;12.99;100.00;98816.66;5099886;28;20039;-70
2021/11/29 05:41:14;;;;;;;28.13;18.05;;;;;;;13.20;100.00;98815.41;5113659;28;20459;-70
2021/11/29 05:44:00;;;;;;;28.67;17.75;;;;;;;13.49;100.00;98807.50;5113735;28;20031;-71
2021/11/29 05:46:46;;;;;;;22.95;14.80;;;;;;;13.17;100.00;98787.50;5115556;28;20051;-70
2021/11/29 05:49:32;;;;;;;23.83;14.63;;;;;;;13.50;100.00;98805.69;5118719;28;20031;-71
2021/11/29 05:52:18;;;;;;;22.08;13.00;;;;;;;13.64;100.00;98825.00;5103988;28;20448;-70
2021/11/29 05:55:06;;;;;;;21.60;12.20;;;;;;;13.60;100.00;98825.28;5117516;28;20040;-68
2021/11/29 05:57:52;;;;;;;16.92;11.07;;;;;;;13.73;100.00;98842.00;5116897;28;20050;-70
2021/11/29 06:00:39;;;;;;;17.27;10.60;;;;;;;13.91;100.00;98833.84;5117043;28;20028;-70
2021/11/29 06:03:25;;;;;;;19.63;9.30;;;;;;;13.64;100.00;98827.66;5117766;28;20092;-72
2021/11/29 06:06:12;;;;;;;16.15;9.05;;;;;;;13.70;100.00;98829.91;5103127;28;20043;-70
2021/11/29 06:08:58;;;;;;;8.23;5.85;;;;;;;13.57;100.00;98821.03;5103172;28;20046;-71
2021/11/29 06:11:44;;;;;;;9.63;4.35;;;;;;;13.77;100.00;98835.63;5116627;28;20050;-70
2021/11/29 06:14:29;;;;;;;8.52;4.38;;;;;;;13.80;100.00;98811.78;5117045;28;20371;-70
2021/11/29 06:17:15;;;;;;;6.25;3.88;;;;;;;13.62;100.00;98811.09;5116606;28;20015;-69
2021/11/29 06:20:01;;;;;;;7.45;4.05;;;;;;;13.97;100.00;98815.06;5117114;28;20087;-70
2021/11/29 06:22:53;;;;;;;5.97;3.97;;;;;;;13.99;100.00;98809.72;5116890;28;20027;-71
2021/11/29 06:25:39;;;;;;;6.35;3.92;;;;;;;13.98;100.00;98832.56;5117035;28;20420;-70
2021/11/29 06:28:24;;;;;;;8.32;4.15;;;;;;;13.91;100.00;98835.66;5102931;28;20448;-69
2021/11/29 06:31:10;;;;;;;5.97;4.00;;;;;;;13.73;100.00;98837.63;5116578;28;20103;-69
2021/11/29 06:33:56;;;;;;;6.07;3.78;;;;;;;13.76;100.00;98866.38;5116607;28;20023;-71
2021/11/29 06:36:42;;;;;;;6.05;4.07;;;;;;;13.87;100.00;98858.66;5116603;28;20091;-70
2021/11/29 06:39:30;;;;;;;8.10;4.95;;;;;;;13.93;100.00;98866.22;5116349;28;20020;-70
2021/11/29 06:42:15;;;;;;;8.57;4.57;;;;;;;14.11;100.00;98880.88;5102246;28;20089;-70
2021/11/29 06:45:02;;;;;;;7.80;4.90;;;;;;;14.09;100.00;98905.63;5117616;28;20024;-71
2021/11/29 06:47:49;;;;;;;6.07;4.35;;;;;;;13.89;100.00;98912.09;5116782;28;20034;-70
2021/11/29 06:50:34;;;;;;;9.52;5.25;;;;;;;13.78;100.00;98926.81;5103063;28;20454;-70
2021/11/29 06:53:22;;;;;;;15.02;9.05;;;;;;;13.62;100.00;98918.97;5115958;28;20035;-71
2021/11/29 06:56:09;;;;;;;14.57;10.80;;;;;;;13.43;100.00;98913.06;5116833;28;20098;-71
2021/11/29 06:58:54;;;;;;;16.33;12.35;;;;;;;13.52;100.00;98920.44;5101672;28;20023;-70
2021/11/29 07:01:40;;;;;;;21.98;14.52;;;;;;;13.27;100.00;98919.31;5116859;28;20119;-71
2021/11/29 07:04:26;;;;;;;28.33;18.13;;;;;;;13.62;100.00;98929.50;5103318;27;20027;-70
2021/11/29 07:07:12;;;;;;;25.23;16.63;;;;;;;13.72;100.00;98942.97;5115641;28;20023;-70
2021/11/29 07:09:58;;;;;;;29.17;19.10;;;;;;;13.24;100.00;98937.88;5116134;28;20028;-70
2021/11/29 07:12:44;;;;;;;25.55;18.33;;;;;;;13.33;100.00;98932.94;5116171;28;20027;-71
2021/11/29 07:15:30;;;;;;;29.67;19.65;;;;;;;13.34;100.00;98900.44;5115904;28;20461;-70
2021/11/29 07:18:16;;;;;;;31.42;20.88;;;;;;;13.29;100.00;98894.63;5102097;28;20172;-70
2021/11/29 07:21:04;;;;;;;43.85;28.25;;;;;;;13.39;100.00;98908.09;5115934;28;20019;-72
2021/11/29 07:23:50;;;;;;;42.80;25.90;;;;;;;13.41;100.00;98908.84;5115962;28;20051;-70
2021/11/29 07:26:37;;;;;;;37.90;24.80;;;;;;;13.52;100.00;98912.56;5101062;28;20051;-70
2021/11/29 07:29:23;;;;;;;39.13;26.00;;;;;;;13.81;100.00;98874.84;5115299;28;20034;-70
2021/11/29 07:32:10;;;;;;;41.55;27.67;;;;;;;13.49;100.00;98875.03;5115933;28;20023;-71
2021/11/29 07:34:56;;;;;;;39.55;27.27;;;;;;;13.72;100.00;98888.56;5115771;28;20540;-72
2021/11/29 07:37:42;;;;;;;42.45;28.20;;;;;;;13.31;100.00;98897.16;5115606;28;20036;-71
2021/11/29 07:40:30;;;;;;;42.53;27.42;;;;;;;13.56;100.00;98921.97;5115756;28;20024;-70
2021/11/29 07:43:17;;;;;;;45.05;28.65;;;;;;;13.43;100.00;98930.66;5116448;28;20046;-70
2021/11/29 07:46:03;;;;;;;44.42;29.83;;;;;;;13.66;100.00;98944.16;5115372;28;20412;-70
2021/11/29 07:48:48;;;;;;;44.70;28.10;;;;;;;13.61;100.00;98943.59;5101488;28;20020;-71
2021/11/29 07:51:34;;;;;;;45.20;28.70;;;;;;;12.98;100.00;98957.72;5115636;28;20095;-71
2021/11/29 07:54:20;;;;;;;42.72;28.90;;;;;;;13.22;100.00;98971.31;5115420;28;20363;-71
2021/11/29 07:57:06;;;;;;;44.58;29.55;;;;;;;12.97;100.00;98971.81;5101276;28;20027;-70
2021/11/29 07:59:52;;;;;;;52.70;32.45;;;;;;;13.13;100.00;98970.03;5114637;28;20047;-70
2021/11/29 08:02:38;;;;;;;48.42;32.90;;;;;;;13.37;100.00;98971.28;5115252;28;20030;-71
2021/11/29 08:05:26;;;;;;;82.20;54.78;;;;;;;13.22;100.00;98969.50;5114467;28;20034;-71
2021/11/29 08:08:12;;;;;;;82.53;54.95;;;;;;;12.88;100.00;98988.06;5114790;28;20024;-73
2021/11/29 08:10:57;;;;;;;84.95;54.58;;;;;;;13.27;100.00;98972.72;5114663;28;20032;-72
2021/11/29 08:13:43;;;;;;;71.03;48.60;;;;;;;13.53;100.00;98960.75;5115253;28;20024;-71
2021/11/29 08:16:29;;;;;;;74.05;50.25;;;;;;;12.82;100.00;98980.50;5114341;28;20028;-71
2021/11/29 08:19:15;;;;;;;71.82;46.80;;;;;;;13.23;100.00;98978.25;5114481;28;20023;-71
2021/11/29 08:22:00;;;;;;;68.43;47.50;;;;;;;13.17;100.00;98965.44;5114877;28;20485;-71
2021/11/29 08:24:46;;;;;;;77.13;49.75;;;;;;;13.32;100.00;98947.03;5115061;28;20027;-70
2021/11/29 08:27:33;;;;;;;61.25;40.75;;;;;;;13.08;100.00;98947.56;5079778;28;20051;-71
2021/11/29 08:30:22;;;;;;;59.38;40.70;;;;;;;13.87;100.00;98950.81;5079882;28;20016;-71
2021/11/29 08:33:08;;;;;;;58.30;41.65;;;;;;;14.32;100.00;98956.00;5094966;28;20107;-71
2021/11/29 08:35:54;;;;;;;61.13;40.20;;;;;;;13.98;100.00;98964.19;5079362;28;20117;-70
2021/11/29 08:38:40;;;;;;;55.47;37.78;;;;;;;13.61;100.00;98969.03;5094815;28;20020;-71
2021/11/29 08:41:27;;;;;;;59.92;41.28;;;;;;;14.05;100.00;98960.28;5094435;28;20032;-71
2021/11/29 08:44:13;;;;;;;53.70;35.83;;;;;;;14.33;100.00;98968.25;5094346;28;20028;-72
2021/11/29 08:46:59;;;;;;;47.70;32.85;;;;;;;13.94;100.00;98969.72;5094899;28;20387;-73
2021/11/29 08:49:45;;;;;;;45.28;30.55;;;;;;;14.22;100.00;98954.88;5094641;28;20024;-71
2021/11/29 08:52:34;;;;;;;46.88;31.98;;;;;;;14.31;100.00;98967.47;5079548;28;20110;-72
2021/11/29 08:55:19;;;;;;;43.45;29.27;;;;;;;14.29;100.00;98982.53;5094180;28;20474;-72
2021/11/29 08:58:08;;;;;;;44.97;31.30;;;;;;;14.06;100.00;99001.44;5094131;28;20024;-71
2021/11/29 09:00:56;;;;;;;46.33;27.65;;;;;;;13.65;100.00;98968.78;5079043;28;20020;-72
2021/11/29 09:03:42;;;;;;;41.90;29.08;;;;;;;13.65;100.00;99045.09;5093492;28;20466;-71
2021/11/29 09:06:27;;;;;;;45.17;30.98;;;;;;;13.84;100.00;99031.75;5093460;28;20038;-72
2021/11/29 09:09:14;;;;;;;45.75;31.70;;;;;;;13.80;100.00;99014.44;5093827;28;20064;-72
2021/11/29 09:12:01;;;;;;;51.90;31.45;;;;;;;14.02;100.00;98997.31;5078816;28;20024;-72
2021/11/29 09:14:47;;;;;;;36.70;25.88;;;;;;;14.13;100.00;98994.03;5079558;28;20067;-71
2021/11/29 09:17:33;;;;;;;36.72;23.60;;;;;;;14.47;100.00;98968.25;5093335;28;20426;-72
2021/11/29 09:20:22;;;;;;;33.80;22.10;;;;;;;14.96;100.00;98954.66;5093691;28;20016;-73
2021/11/29 09:23:12;;;;;;;28.25;20.52;;;;;;;15.36;100.00;98936.25;5096803;28;20166;-74
2021/11/29 09:25:58;;;;;;;31.73;20.38;;;;;;;15.17;100.00;98963.84;5097830;28;20075;-71
2021/11/29 09:28:45;;;;;;;25.05;17.92;;;;;;;14.14;100.00;99007.13;5098002;28;20036;-72
2021/11/29 09:31:31;;;;;;;27.42;18.85;;;;;;;13.96;100.00;99062.63;5083384;28;20503;-71
2021/11/29 09:34:17;;;;;;;37.97;24.58;;;;;;;13.74;100.00;99085.81;5082216;28;20032;-73
2021/11/29 09:37:03;;;;;;;27.35;19.42;;;;;;;13.97;100.00;99036.22;5096496;28;20092;-74
2021/11/29 09:39:48;;;;;;;40.65;24.63;;;;;;;14.11;100.00;99033.63;5097988;28;20028;-71
2021/11/29 09:42:36;;;;;;;28.05;18.52;;;;;;;13.91;100.00;99015.50;5097900;28;20024;-71
2021/11/29 09:45:24;;;;;;;26.63;18.70;;;;;;;13.83;100.00;99024.78;5097219;28;20338;-73
2021/11/29 09:48:11;;;;;;;24.58;17.80;;;;;;;13.32;100.00;99038.22;5082160;28;20016;-71
2021/11/29 09:50:56;;;;;;;28.42;18.63;;;;;;;13.43;100.00;99044.59;5097307;28;20028;-71
2021/11/29 09:53:43;;;;;;;31.25;20.63;;;;;;;13.18;100.00;99038.16;5097900;28;20032;-71
2021/11/29 09:56:29;;;;;;;31.23;21.13;;;;;;;13.13;100.00;99034.91;5068457;28;20114;-71
2021/11/29 09:59:15;;;;;;;33.70;23.45;;;;;;;13.28;100.00;99041.97;5082485;28;20024;-71
2021/11/29 10:02:01;;;;;;;37.10;26.48;;;;;;;12.98;100.00;99041.84;5096479;28;20028;-71
2021/11/29 10:04:48;;;;;;;34.75;23.90;;;;;;;13.13;100.00;99045.41;5097269;28;20028;-72
2021/11/29 10:07:47;;;;;;;34.53;24.38;;;;;;;13.22;100.00;99050.22;5097714;28;20039;-71
2021/11/29 10:10:32;;;;;;;33.25;23.75;;;;;;;13.19;100.00;99048.56;5097704;28;20032;-74
2021/11/29 10:13:19;;;;;;;30.42;23.02;;;;;;;13.14;100.00;99040.09;5097138;28;20028;-74
2021/11/29 10:16:05;;;;;;;31.38;22.55;;;;;;;13.06;100.00;99050.16;5097274;28;20035;-72
2021/11/29 10:18:51;;;;;;;32.65;22.67;;;;;;;13.06;100.00;99051.97;5097357;28;20114;-72
2021/11/29 10:21:37;;;;;;;34.55;22.83;;;;;;;12.63;100.00;99040.22;5097605;28;20032;-72
2021/11/29 10:24:23;;;;;;;35.03;23.90;;;;;;;13.10;100.00;99043.81;5097596;28;20042;-72
2021/11/29 10:27:09;;;;;;;35.30;24.60;;;;;;;13.00;100.00;99045.25;5116997;28;20051;-72
2021/11/29 10:29:56;;;;;;;28.92;21.52;;;;;;;13.19;100.00;99068.78;5118016;28;20466;-72
2021/11/29 10:32:45;;;;;;;27.77;19.70;;;;;;;13.00;100.00;99082.06;5116808;28;20026;-74
2021/11/29 10:35:36;;;;;;;25.45;18.70;;;;;;;13.13;100.00;99077.84;5117316;28;20027;-71
2021/11/29 10:38:29;;;;;;;23.70;16.70;;;;;;;13.37;100.00;99076.50;5117319;28;20437;-72
2021/11/29 10:41:23;;;;;;;23.63;16.90;;;;;;;13.42;100.00;99058.69;5101252;28;20027;-71
2021/11/29 10:44:13;;;;;;;21.67;15.15;;;;;;;13.42;100.00;99053.41;5116715;28;20336;-70
2021/11/29 10:47:03;;;;;;;22.90;15.68;;;;;;;13.47;100.00;99045.28;5115905;28;20031;-72
2021/11/29 10:49:55;;;;;;;23.33;16.88;;;;;;;13.46;100.00;99049.69;5101710;28;20035;-71
2021/11/29 10:52:45;;;;;;;26.55;18.88;;;;;;;13.28;100.00;99061.25;5117050;28;20503;-71
2021/11/29 10:55:31;;;;;;;23.73;18.10;;;;;;;13.24;100.00;99053.59;5116156;28;20046;-71
2021/11/29 10:58:17;;;;;;;27.42;19.30;;;;;;;13.45;100.00;99084.81;5115985;28;20019;-70
2021/11/29 11:01:03;;;;;;;28.33;19.10;;;;;;;13.14;100.00;99087.41;5117287;28;20027;-72
2021/11/29 11:03:56;;;;;;;26.48;19.60;;;;;;;13.25;100.00;99090.31;5117536;27;20023;-72
2021/11/29 11:06:45;;;;;;;29.25;20.67;;;;;;;13.39;100.00;99087.78;5116863;28;20051;-72
2021/11/29 11:09:37;;;;;;;23.17;17.58;;;;;;;12.98;100.00;99093.59;5115813;28;20039;-71
2021/11/29 11:12:33;;;;;;;25.48;18.35;;;;;;;13.03;100.00;99091.56;5117117;28;20020;-72
2021/11/29 11:15:21;;;;;;;24.67;17.73;;;;;;;12.77;100.00;99100.78;5100464;28;20051;-72
2021/11/29 11:18:09;;;;;;;22.10;15.50;;;;;;;12.85;100.00;99119.63;5116660;28;20030;-71
2021/11/29 11:21:13;;;;;;;20.70;15.23;;;;;;;12.61;100.00;99115.63;5117239;28;20047;-71
2021/11/29 11:24:23;;;;;;;18.63;13.15;;;;;;;12.81;100.00;99111.97;5116629;28;20084;-71
2021/11/29 11:27:10;;;;;;;16.67;11.00;;;;;;;12.96;100.00;99133.06;5101348;28;20040;-71
2021/11/29 11:30:17;;;;;;;14.00;10.32;;;;;;;12.61;100.00;99134.00;5115891;28;20026;-71
2021/11/29 11:33:09;;;;;;;19.65;10.40;;;;;;;12.23;100.00;99115.84;5116892;28;20050;-72
2021/11/29 11:35:55;;;;;;;15.70;9.43;;;;;;;12.01;100.00;99123.91;5115444;28;20096;-72
2021/11/29 11:38:41;;;;;;;14.40;9.77;;;;;;;12.23;100.00;99126.34;5116424;28;20101;-72
2021/11/29 11:41:27;;;;;;;14.40;9.38;;;;;;;12.15;100.00;99142.50;5114919;28;20034;-71
2021/11/29 11:44:12;;;;;;;18.65;9.10;;;;;;;11.98;100.00;99147.69;5115663;28;20023;-70
2021/11/29 11:47:00;;;;;;;10.38;7.43;;;;;;;12.13;100.00;99148.75;5116634;27;20019;-71
2021/11/29 11:49:47;;;;;;;9.63;6.20;;;;;;;11.87;100.00;99139.50;5116452;28;20024;-72
2021/11/29 11:52:34;;;;;;;9.25;5.30;;;;;;;11.55;100.00;99145.38;5114575;28;20115;-72
2021/11/29 11:55:24;;;;;;;11.38;4.60;;;;;;;11.76;100.00;99128.66;5115723;28;20028;-72
2021/11/29 11:58:15;;;;;;;5.82;3.97;;;;;;;11.57;100.00;99111.19;5101040;28;20031;-71
2021/11/29 12:01:01;;;;;;;7.72;5.60;;;;;;;11.98;100.00;99113.56;5115573;28;20020;-71
2021/11/29 12:03:49;;;;;;;9.48;6.60;;;;;;;11.75;100.00;99126.94;5115059;28;20059;-70
2021/11/29 12:06:36;;;;;;;11.25;7.22;;;;;;;12.05;100.00;99120.22;5116349;28;20027;-70
2021/11/29 12:09:28;;;;;;;10.20;7.60;;;;;;;12.04;100.00;99117.66;5115768;28;20566;-71
2021/11/29 12:12:15;;;;;;;9.75;7.10;;;;;;;11.71;100.00;99121.91;5115060;28;20035;-72
2021/11/29 12:15:15;;;;;;;11.68;7.82;;;;;;;11.80;100.00;99132.81;5115810;28;20106;-70
2021/11/29 12:18:01;;;;;;;11.10;7.75;;;;;;;12.24;100.00;99133.28;5116223;27;20034;-71
2021/11/29 12:21:39;;;;;;;11.57;6.82;;;;;;;12.39;100.00;99137.78;5116603;27;20124;-72
2021/11/29 12:24:40;;;;;;;6.38;4.85;;;;;;;11.98;100.00;99150.31;5017228;28;20105;-71
2021/11/29 12:27:48;;;;;;;9.30;5.13;;;;;;;11.91;100.00;99143.66;5078874;28;20054;-71
2021/11/29 12:30:34;;;;;;;13.43;5.20;;;;;;;11.86;100.00;99144.81;5094939;28;20024;-71
2021/11/29 12:33:22;;;;;;;6.25;4.10;;;;;;;12.08;100.00;99143.69;5094877;28;20059;-72
2021/11/29 12:36:11;;;;;;;8.98;3.55;;;;;;;11.77;100.00;99156.56;5094479;28;20028;-70
2021/11/29 12:38:56;;;;;;;22.65;5.28;;;;;;;12.39;100.00;99151.78;5094796;28;20039;-72
2021/11/29 12:41:42;;;;;;;8.05;3.53;;;;;;;12.10;100.00;99159.38;5065481;28;20020;-71
2021/11/29 12:44:45;;;;;;;5.50;3.65;;;;;;;11.90;100.00;99156.84;5080047;28;20028;-72
2021/11/29 12:47:39;;;;;;;5.95;3.90;;;;;;;12.44;100.00;99180.44;5094136;28;20451;-72